Tawakoni's Hourly Summary for Sunday, March 19, 2017
Hour Temp
(f)
RH
(%)
Solar Rad.
(MJ/m2)
Rainfall
(in)
Wind
(mph)
3/19/2017 12:00 AM 65 86 0 0 4.63
3/19/2017 1:00 AM 64 88 0 0 4.65
3/19/2017 2:00 AM 64 88 0 0 5.21
3/19/2017 3:00 AM 64 89 0 0 4.83
3/19/2017 4:00 AM 64 86 0 0 5.31
3/19/2017 5:00 AM 64 86 0 0 5.54
3/19/2017 6:00 AM 63 89 0 0 5.92
3/19/2017 7:00 AM 63 92 0 0 6.31
3/19/2017 8:00 AM 63 93 0.04 0 6.01
3/19/2017 9:00 AM 64 89 0.41 0 7.39
3/19/2017 10:00 AM 67 82 1.05 0 8.14
3/19/2017 11:00 AM 67 81 0.8 0 7.76
3/19/2017 12:00 PM 69 74 1.28 0 7.5
3/19/2017 1:00 PM 71 63 2.5 0 8.56
3/19/2017 2:00 PM 74 59 2.87 0 9.14
3/19/2017 3:00 PM 76 53 2.93 0 9.79
3/19/2017 4:00 PM 78 51 2.59 0 10.7
3/19/2017 5:00 PM 78 48 1.47 0 10.75
3/19/2017 6:00 PM 78 48 1 0 10.87
3/19/2017 7:00 PM 77 49 0.61 0 9.46
3/19/2017 8:00 PM 74 54 0.07 0 6.9
3/19/2017 9:00 PM 71 65 0 0 5.17
3/19/2017 10:00 PM 70 67 0 0 6.79
3/19/2017 11:00 PM 69 67 0 0 8.09
Data Summary 69 72 17.62 0.00 7.31